Calico Basin, Nevada
Current Conditions -  °F | °C
As of 7:56 PM on Wednesday 22 Oct 2014 (Local Time) from KHND Reporting Station
Clear Clear  
Wind Chill: 71°   Ceiling: Unl
Heat Index: 71°   Visibility: 10mi
Dew Point: 32°   Wind: 5mph
Humidity: 24%   Direction: 140°SE
Pressure: 30.04"   Gusts: NA
Location:  35.8437°N, 115.134°W
Report Text: KHND 230256Z AUTO 14004KT 10SM CLR 22/00 A3004 RMK AO2 53009 T02160000 SLP159
Loading
Personal Weather Stations






























Interactive Weather Map
Tropical Storm Tracking
New forecast layout! Learn more

10-Day Weather Forecast

Advertisements
Track Severe Weather on mobile